Monte Creek, Canada
Current Conditions -  °F | °C
As of 9:05 AM on Wednesday 26 Nov 2014 (Local Time) from CYKA Reporting Station
Light Snow Light Snow  
Wind Chill: 25°   Ceiling: 500
Heat Index: 34°   Visibility: 3mi
Dew Point: 32°   Wind: 12mph
Humidity: 93%   Direction: 110°ESE
Pressure: 30.11"   Gusts: NA
Location:  50.65°N, 119.96°W
Report Text: CYKA 261705Z 11010KT 3SM -SN FEW002 BKN005 OVC018 01/00 A3011 RMK SF1SF4SC3 SLP213
Loading
Personal Weather Stations






























Interactive Weather Map New forecast layout! Learn more

10-Day Weather Forecast

Advertisements
Track Severe Weather on mobile